createdAt,value
2017-06-30T00:01:33.769Z,27.62
2017-06-30T00:04:01.521Z,27.73
2017-06-30T00:06:29.068Z,27.80
2017-06-30T00:08:56.646Z,27.75
2017-06-30T00:11:24.403Z,27.75
2017-06-30T00:13:51.996Z,27.77
2017-06-30T00:16:19.620Z,27.81
2017-06-30T00:18:47.217Z,27.87
2017-06-30T00:21:14.768Z,27.85
2017-06-30T00:23:42.346Z,27.80
2017-06-30T00:26:09.857Z,27.80
2017-06-30T00:28:37.432Z,27.79
2017-06-30T00:31:05.039Z,27.56
2017-06-30T00:33:32.592Z,27.54
2017-06-30T00:36:00.219Z,27.56
2017-06-30T00:38:27.805Z,27.50
2017-06-30T00:40:55.313Z,27.40
2017-06-30T00:43:23.064Z,27.37
2017-06-30T00:45:50.629Z,27.40
2017-06-30T00:48:18.177Z,27.39
2017-06-30T00:50:45.745Z,27.37
2017-06-30T00:53:13.322Z,27.40
2017-06-30T00:55:40.888Z,27.35
2017-06-30T00:58:08.477Z,27.39
2017-06-30T01:00:36.060Z,27.39
2017-06-30T01:03:03.625Z,27.46
2017-06-30T01:05:31.144Z,27.40
2017-06-30T01:07:58.985Z,27.46
2017-06-30T01:10:26.502Z,27.38
2017-06-30T01:12:54.033Z,27.24
2017-06-30T01:15:21.613Z,27.20
2017-06-30T01:17:49.390Z,27.14
2017-06-30T01:20:16.923Z,27.19
2017-06-30T01:22:44.520Z,27.14
2017-06-30T01:25:12.066Z,27.08
2017-06-30T01:27:39.589Z,26.99
2017-06-30T01:30:07.447Z,26.93
2017-06-30T01:32:34.987Z,26.72
2017-06-30T01:35:02.532Z,26.68
2017-06-30T01:37:30.119Z,26.64
2017-06-30T01:39:57.644Z,26.65
2017-06-30T01:42:25.211Z,26.52
2017-06-30T01:44:52.775Z,26.42
2017-06-30T01:47:20.565Z,25.99
2017-06-30T01:49:48.100Z,26.17
2017-06-30T01:52:15.682Z,26.21
2017-06-30T01:54:43.239Z,26.14
2017-06-30T01:57:10.788Z,26.13
2017-06-30T01:59:38.379Z,26.09
2017-06-30T02:02:05.976Z,26.17
2017-06-30T02:04:33.529Z,26.12
2017-06-30T02:07:01.132Z,26.08
2017-06-30T02:09:28.717Z,26.03
2017-06-30T02:11:56.248Z,25.98
2017-06-30T02:14:23.792Z,25.89
2017-06-30T02:16:51.359Z,25.80
2017-06-30T02:19:18.898Z,25.73
2017-06-30T02:21:46.437Z,25.80
2017-06-30T02:24:14.869Z,25.73
2017-06-30T02:26:42.410Z,25.82
2017-06-30T02:29:10.010Z,25.71
2017-06-30T02:31:37.688Z,25.67
2017-06-30T02:34:05.280Z,25.47
2017-06-30T02:36:32.902Z,25.50
2017-06-30T02:39:00.492Z,25.48
2017-06-30T02:41:28.059Z,25.43
2017-06-30T02:43:55.817Z,25.45
2017-06-30T02:46:23.431Z,25.49
2017-06-30T02:48:50.994Z,25.52
2017-06-30T02:51:18.578Z,25.48
2017-06-30T02:53:46.466Z,25.33
2017-06-30T02:56:14.018Z,25.36
2017-06-30T02:58:41.553Z,25.32
2017-06-30T03:01:09.145Z,25.35
2017-06-30T03:03:36.720Z,25.31
2017-06-30T03:06:04.273Z,25.21
2017-06-30T03:08:31.854Z,25.22
2017-06-30T03:10:59.376Z,25.21
2017-06-30T03:13:26.978Z,25.15
2017-06-30T03:15:54.549Z,25.25
2017-06-30T03:18:22.090Z,24.94
2017-06-30T03:20:49.841Z,24.93
2017-06-30T03:23:17.477Z,24.97
2017-06-30T03:25:45.045Z,25.01
2017-06-30T03:28:13.460Z,25.15
2017-06-30T03:30:41.117Z,25.13
2017-06-30T03:33:08.698Z,25.06
2017-06-30T03:35:36.233Z,24.65
2017-06-30T03:38:03.822Z,24.34
2017-06-30T03:40:31.355Z,24.44
2017-06-30T03:42:58.888Z,24.65
2017-06-30T03:45:26.490Z,24.95
2017-06-30T03:47:54.077Z,25.08
2017-06-30T03:50:21.586Z,25.00
2017-06-30T03:52:49.192Z,25.13
2017-06-30T03:55:16.773Z,25.30
2017-06-30T03:57:44.528Z,25.40
2017-06-30T04:00:12.125Z,25.61
2017-06-30T04:02:39.869Z,25.78
2017-06-30T04:05:07.426Z,25.85
2017-06-30T04:07:35.005Z,26.00
2017-06-30T04:10:02.589Z,26.10
2017-06-30T04:12:30.390Z,26.21
2017-06-30T04:14:57.968Z,26.24
2017-06-30T04:17:25.561Z,26.30
2017-06-30T04:19:53.087Z,26.32
2017-06-30T04:22:20.674Z,26.22
2017-06-30T04:24:48.209Z,26.35
2017-06-30T04:27:15.772Z,26.83
2017-06-30T04:29:44.059Z,27.31
2017-06-30T04:32:11.753Z,27.41
2017-06-30T04:34:39.927Z,27.48
2017-06-30T04:37:10.182Z,27.54
2017-06-30T04:39:38.529Z,27.69
2017-06-30T04:42:06.179Z,27.70
2017-06-30T04:44:39.123Z,27.79
2017-06-30T04:47:08.954Z,28.06
2017-06-30T04:49:40.046Z,28.11
2017-06-30T04:52:08.543Z,28.17
2017-06-30T04:54:38.274Z,28.19
2017-06-30T04:57:08.046Z,28.17
2017-06-30T04:59:37.331Z,28.14
2017-06-30T05:02:06.693Z,28.00
2017-06-30T05:04:34.294Z,27.73
2017-06-30T05:07:02.065Z,27.77
2017-06-30T05:09:29.619Z,27.52
2017-06-30T05:11:57.165Z,27.59
2017-06-30T05:14:24.726Z,27.60
2017-06-30T05:16:52.309Z,27.62
2017-06-30T05:19:19.892Z,27.67
2017-06-30T05:21:47.523Z,27.82
2017-06-30T05:24:15.132Z,27.98
2017-06-30T05:26:43.085Z,28.12
2017-06-30T05:29:10.641Z,28.22
2017-06-30T05:31:38.252Z,28.23
2017-06-30T05:34:05.821Z,28.37
2017-06-30T05:36:33.577Z,28.45
2017-06-30T05:39:01.382Z,28.45
2017-06-30T05:41:28.889Z,28.65
2017-06-30T05:43:56.430Z,28.64
2017-06-30T05:46:24.050Z,28.69
2017-06-30T05:48:51.592Z,29.01
2017-06-30T05:51:19.132Z,29.11
2017-06-30T05:53:46.719Z,29.23
2017-06-30T05:56:14.461Z,29.19
2017-06-30T05:58:42.003Z,29.30
2017-06-30T06:01:09.565Z,29.26
2017-06-30T06:03:37.095Z,29.68
2017-06-30T06:06:04.860Z,29.77
2017-06-30T06:08:32.443Z,30.04
2017-06-30T06:11:00.012Z,29.94
2017-06-30T06:13:27.765Z,29.97
2017-06-30T06:15:55.605Z,29.98
2017-06-30T06:18:23.388Z,30.02
2017-06-30T06:20:50.918Z,30.36
2017-06-30T06:23:18.516Z,30.65
2017-06-30T06:25:46.105Z,30.73
2017-06-30T06:28:13.695Z,31.28
2017-06-30T06:30:41.284Z,31.26
2017-06-30T06:33:08.849Z,31.09
2017-06-30T06:35:37.099Z,31.19
2017-06-30T06:38:04.682Z,31.18
2017-06-30T06:40:32.294Z,31.05
2017-06-30T06:43:00.060Z,31.19
2017-06-30T06:45:27.700Z,31.81
2017-06-30T06:47:55.290Z,32.10
2017-06-30T06:50:23.032Z,31.96
2017-06-30T06:52:50.637Z,32.00
2017-06-30T06:55:18.249Z,32.19
2017-06-30T06:57:46.042Z,32.37
2017-06-30T07:00:13.900Z,32.39
2017-06-30T07:02:41.664Z,32.73
2017-06-30T07:05:09.464Z,32.96
2017-06-30T07:07:37.046Z,32.68
2017-06-30T07:10:04.672Z,32.92
2017-06-30T07:12:32.438Z,32.69
2017-06-30T07:15:00.024Z,32.57
2017-06-30T07:17:27.797Z,33.05
2017-06-30T07:19:55.444Z,32.89
2017-06-30T07:22:23.026Z,32.63
2017-06-30T07:24:50.558Z,32.46
2017-06-30T07:27:18.121Z,33.11
2017-06-30T07:29:45.682Z,33.49
2017-06-30T07:32:13.283Z,33.93
2017-06-30T07:34:40.833Z,34.15
2017-06-30T07:37:08.364Z,34.37
2017-06-30T07:39:35.918Z,34.54
2017-06-30T07:42:04.093Z,34.42
2017-06-30T07:44:31.607Z,34.55
2017-06-30T07:46:59.192Z,34.83
2017-06-30T07:49:26.761Z,34.98
2017-06-30T07:51:55.069Z,35.25
2017-06-30T07:54:22.658Z,35.23
2017-06-30T07:56:50.204Z,35.53
2017-06-30T07:59:17.965Z,35.51
2017-06-30T08:01:45.528Z,35.30
2017-06-30T08:04:13.119Z,35.40
2017-06-30T08:06:40.660Z,35.32
2017-06-30T08:09:08.257Z,35.07
2017-06-30T08:11:36.104Z,35.40
2017-06-30T08:14:03.654Z,35.54
2017-06-30T08:16:31.244Z,35.68
2017-06-30T08:18:58.824Z,35.75
2017-06-30T08:21:26.365Z,35.72
2017-06-30T08:23:53.982Z,35.56
2017-06-30T08:26:21.532Z,35.42
2017-06-30T08:28:49.113Z,35.50
2017-06-30T08:31:16.723Z,35.64
2017-06-30T08:33:44.274Z,35.84
2017-06-30T08:36:11.824Z,35.80
2017-06-30T08:38:39.400Z,36.02
2017-06-30T08:41:07.004Z,36.26
2017-06-30T08:43:34.546Z,36.11
2017-06-30T08:46:02.149Z,36.26
2017-06-30T08:48:29.695Z,36.13
2017-06-30T08:50:57.208Z,35.78
2017-06-30T08:53:24.799Z,35.51
2017-06-30T08:55:52.330Z,35.71
2017-06-30T08:58:19.884Z,35.59
2017-06-30T09:00:47.454Z,35.70
2017-06-30T09:03:14.968Z,35.85
2017-06-30T09:05:42.498Z,35.81
2017-06-30T09:08:10.076Z,35.72
2017-06-30T09:10:37.610Z,35.41
2017-06-30T09:13:05.405Z,35.34
2017-06-30T09:15:32.978Z,35.53
2017-06-30T09:18:00.511Z,35.20
2017-06-30T09:20:28.089Z,35.23
2017-06-30T09:22:55.666Z,35.13
2017-06-30T09:25:23.408Z,35.23
2017-06-30T09:27:51.154Z,35.52
2017-06-30T09:30:18.794Z,35.67
2017-06-30T09:32:46.652Z,35.57
2017-06-30T09:35:14.157Z,35.69
2017-06-30T09:37:41.730Z,36.03
2017-06-30T09:40:09.260Z,36.28
2017-06-30T09:42:37.005Z,36.54
2017-06-30T09:45:04.578Z,36.73
2017-06-30T09:47:32.124Z,35.92
2017-06-30T09:49:59.735Z,35.50
2017-06-30T09:52:27.304Z,35.21
2017-06-30T09:54:54.904Z,35.45
2017-06-30T09:57:22.444Z,35.29
2017-06-30T09:59:50.017Z,35.76
2017-06-30T10:02:17.600Z,36.33
2017-06-30T10:04:45.365Z,35.84
2017-06-30T10:07:13.124Z,35.81
2017-06-30T10:09:40.707Z,35.49
2017-06-30T10:12:09.085Z,35.58
2017-06-30T10:14:36.678Z,36.07
2017-06-30T10:17:04.277Z,36.40
2017-06-30T10:19:31.863Z,36.30
2017-06-30T10:21:59.624Z,36.43
2017-06-30T10:24:27.256Z,36.42
2017-06-30T10:26:55.020Z,36.74
2017-06-30T10:29:22.531Z,36.94
2017-06-30T10:31:50.146Z,36.82
2017-06-30T10:34:17.689Z,36.54
2017-06-30T10:36:45.242Z,36.50
2017-06-30T10:39:12.844Z,36.83
2017-06-30T10:41:40.353Z,36.92
2017-06-30T10:44:08.324Z,36.94
2017-06-30T10:46:35.962Z,37.05
2017-06-30T10:49:03.531Z,37.21
2017-06-30T10:51:31.286Z,37.33
2017-06-30T10:53:58.888Z,37.32
2017-06-30T10:56:26.465Z,37.32
2017-06-30T10:58:54.039Z,37.37
2017-06-30T11:01:21.683Z,37.36
2017-06-30T11:03:49.510Z,37.56
2017-06-30T11:06:17.076Z,37.47
2017-06-30T11:08:44.681Z,37.86
2017-06-30T11:11:12.936Z,37.93
2017-06-30T11:13:40.743Z,37.94
2017-06-30T11:16:08.330Z,37.77
2017-06-30T11:18:36.100Z,37.72
2017-06-30T11:21:04.234Z,37.71
2017-06-30T11:23:32.072Z,37.71
2017-06-30T11:25:59.620Z,37.63
2017-06-30T11:28:27.219Z,37.96
2017-06-30T11:30:54.813Z,37.65
2017-06-30T11:33:22.568Z,37.53
2017-06-30T11:35:50.154Z,37.74
2017-06-30T11:38:17.749Z,37.96
2017-06-30T11:40:45.329Z,37.94
2017-06-30T11:43:13.825Z,37.65
2017-06-30T11:45:41.815Z,37.68
2017-06-30T11:48:09.399Z,38.04
2017-06-30T11:50:37.030Z,37.79
2017-06-30T11:53:04.692Z,37.85
2017-06-30T11:55:32.981Z,37.25
2017-06-30T11:58:01.870Z,37.17
2017-06-30T12:00:30.395Z,37.27
2017-06-30T12:02:57.981Z,37.68
2017-06-30T12:05:26.363Z,37.67
2017-06-30T12:07:54.899Z,38.10
2017-06-30T12:10:22.492Z,37.05
2017-06-30T12:12:50.050Z,36.75
2017-06-30T12:15:17.636Z,36.50
2017-06-30T12:17:45.233Z,36.47
2017-06-30T12:20:12.807Z,36.25
2017-06-30T12:22:40.462Z,36.59
2017-06-30T12:25:08.009Z,36.94
2017-06-30T12:27:35.600Z,36.65
2017-06-30T12:30:05.121Z,36.82
2017-06-30T12:32:32.717Z,36.54
2017-06-30T12:35:00.271Z,36.71
2017-06-30T12:37:27.877Z,36.95
2017-06-30T12:39:55.468Z,36.85
2017-06-30T12:42:22.985Z,36.82
2017-06-30T12:44:50.596Z,37.12
2017-06-30T12:47:18.362Z,37.03
2017-06-30T12:49:46.087Z,37.04
2017-06-30T12:52:13.668Z,37.20
2017-06-30T12:54:42.086Z,37.40
2017-06-30T12:57:09.658Z,37.27
2017-06-30T12:59:37.255Z,36.64
2017-06-30T13:02:04.849Z,36.85
2017-06-30T13:04:32.661Z,36.98
2017-06-30T13:07:00.444Z,37.14
2017-06-30T13:09:27.999Z,36.86
2017-06-30T13:11:55.754Z,37.02
2017-06-30T13:14:23.324Z,36.68
2017-06-30T13:16:50.977Z,36.64
2017-06-30T13:19:18.485Z,36.53
2017-06-30T13:21:46.213Z,36.97
2017-06-30T13:24:13.819Z,37.17
2017-06-30T13:26:41.386Z,37.30
2017-06-30T13:29:08.946Z,37.13
2017-06-30T13:31:36.565Z,37.02
2017-06-30T13:34:04.105Z,36.89
2017-06-30T13:36:31.847Z,36.70
2017-06-30T13:38:59.432Z,36.67
2017-06-30T13:41:27.185Z,36.66
2017-06-30T13:43:54.745Z,36.69
2017-06-30T13:46:22.354Z,36.74
2017-06-30T13:48:49.921Z,36.84
2017-06-30T13:51:17.510Z,36.90
2017-06-30T13:53:45.085Z,36.80
2017-06-30T13:56:12.708Z,36.42
2017-06-30T13:58:40.287Z,36.68
2017-06-30T14:01:08.677Z,36.65
2017-06-30T14:03:36.273Z,36.73
2017-06-30T14:06:04.072Z,36.83
2017-06-30T14:08:31.701Z,36.79
2017-06-30T14:10:59.281Z,36.95
2017-06-30T14:13:26.875Z,36.96
2017-06-30T14:15:54.449Z,36.84
2017-06-30T14:18:22.064Z,36.93
2017-06-30T14:20:49.637Z,36.96
2017-06-30T14:23:17.249Z,37.05
2017-06-30T14:25:44.797Z,37.08
2017-06-30T14:28:12.537Z,37.02
2017-06-30T14:30:40.325Z,36.95
2017-06-30T14:33:07.978Z,36.97
2017-06-30T14:35:36.467Z,36.89
2017-06-30T14:38:04.049Z,36.91
2017-06-30T14:40:31.689Z,36.88
2017-06-30T14:42:59.630Z,36.88
2017-06-30T14:45:27.739Z,36.80
2017-06-30T14:47:55.331Z,36.66
2017-06-30T14:50:23.126Z,36.54
2017-06-30T14:52:50.669Z,36.49
2017-06-30T14:55:18.305Z,36.42
2017-06-30T14:57:46.056Z,36.26
2017-06-30T15:00:13.701Z,36.44
2017-06-30T15:02:41.310Z,36.53
2017-06-30T15:05:09.136Z,36.61
2017-06-30T15:07:36.710Z,36.64
2017-06-30T15:10:04.293Z,36.38
2017-06-30T15:12:31.853Z,36.44
2017-06-30T15:14:59.457Z,36.44
2017-06-30T15:17:26.994Z,36.54
2017-06-30T15:19:54.512Z,36.46
2017-06-30T15:22:22.148Z,36.49
2017-06-30T15:24:49.724Z,36.46
2017-06-30T15:27:17.272Z,36.55
2017-06-30T15:29:44.857Z,36.38
2017-06-30T15:32:12.453Z,36.37
2017-06-30T15:34:40.326Z,36.50
2017-06-30T15:37:07.834Z,36.35
2017-06-30T15:39:35.537Z,36.43
2017-06-30T15:42:03.387Z,36.45
2017-06-30T15:44:30.923Z,36.42
2017-06-30T15:46:58.505Z,36.22
2017-06-30T15:49:26.299Z,36.30
2017-06-30T15:51:54.746Z,36.27
2017-06-30T15:54:22.342Z,36.24
2017-06-30T15:56:49.924Z,36.34
2017-06-30T15:59:17.446Z,36.30
2017-06-30T16:01:45.108Z,36.16
2017-06-30T16:04:13.105Z,36.06
2017-06-30T16:06:41.205Z,36.08
2017-06-30T16:09:08.785Z,36.05
2017-06-30T16:11:36.337Z,36.18
2017-06-30T16:14:04.511Z,36.14
2017-06-30T16:16:32.265Z,36.00
2017-06-30T16:19:00.036Z,35.94
2017-06-30T16:21:27.745Z,35.95
2017-06-30T16:23:55.402Z,35.82
2017-06-30T16:26:23.175Z,35.81
2017-06-30T16:28:50.762Z,36.03
2017-06-30T16:31:19.718Z,35.97
2017-06-30T16:33:47.902Z,35.88
2017-06-30T16:36:16.223Z,35.90
2017-06-30T16:38:43.789Z,35.75
2017-06-30T16:41:11.338Z,35.71
2017-06-30T16:43:39.089Z,35.70
2017-06-30T16:46:06.687Z,35.65
2017-06-30T16:48:34.368Z,35.64
2017-06-30T16:51:01.979Z,35.58
2017-06-30T16:53:29.568Z,35.56
2017-06-30T16:55:57.102Z,35.50
2017-06-30T16:58:24.657Z,35.50
2017-06-30T17:00:52.290Z,35.36
2017-06-30T17:03:19.899Z,35.30
2017-06-30T17:05:47.463Z,35.20
2017-06-30T17:08:15.060Z,35.11
2017-06-30T17:10:42.744Z,35.03
2017-06-30T17:13:10.335Z,34.94
2017-06-30T17:15:37.975Z,34.88
2017-06-30T17:18:05.823Z,34.85
2017-06-30T17:20:34.112Z,34.77
2017-06-30T17:23:02.194Z,34.63
2017-06-30T17:25:30.035Z,34.57
2017-06-30T17:27:57.560Z,34.51
2017-06-30T17:30:25.136Z,34.50
2017-06-30T17:32:52.663Z,34.35
2017-06-30T17:35:20.430Z,34.10
2017-06-30T17:37:48.015Z,34.02
2017-06-30T17:40:15.552Z,33.92
2017-06-30T17:42:43.129Z,33.91
2017-06-30T17:45:10.715Z,33.62
2017-06-30T17:47:38.295Z,33.57
2017-06-30T17:50:05.891Z,33.41
2017-06-30T17:52:33.482Z,33.29
2017-06-30T17:55:01.008Z,33.25
2017-06-30T17:57:28.521Z,33.04
2017-06-30T17:59:56.111Z,32.98
2017-06-30T18:02:23.759Z,32.94
2017-06-30T18:04:51.606Z,32.98
2017-06-30T18:07:19.211Z,33.02
2017-06-30T18:09:47.891Z,33.07
2017-06-30T18:12:15.833Z,33.03
2017-06-30T18:14:43.456Z,32.90
2017-06-30T18:17:11.589Z,32.87
2017-06-30T18:19:39.230Z,32.74
2017-06-30T18:22:07.102Z,32.70
2017-06-30T18:24:35.544Z,32.63
2017-06-30T18:27:03.129Z,32.52
2017-06-30T18:29:30.791Z,32.52
2017-06-30T18:31:58.385Z,32.49
2017-06-30T18:34:26.595Z,32.49
2017-06-30T18:36:54.488Z,32.32
2017-06-30T18:39:22.114Z,32.24
2017-06-30T18:41:49.851Z,32.15
2017-06-30T18:44:17.392Z,32.10
2017-06-30T18:46:45.030Z,32.03
2017-06-30T18:49:12.806Z,32.08
2017-06-30T18:51:41.432Z,32.00
2017-06-30T18:54:09.887Z,31.92
2017-06-30T18:56:38.900Z,31.87
2017-06-30T18:59:06.493Z,31.85
2017-06-30T19:01:34.064Z,31.80
2017-06-30T19:04:01.578Z,31.73
2017-06-30T19:06:29.611Z,31.70
2017-06-30T19:08:58.093Z,31.69
2017-06-30T19:11:25.654Z,31.60
2017-06-30T19:13:53.440Z,31.32
2017-06-30T19:16:21.275Z,31.10
2017-06-30T19:18:49.062Z,31.35
2017-06-30T19:21:16.977Z,31.46
2017-06-30T19:23:44.962Z,31.51
2017-06-30T19:26:13.161Z,31.28
2017-06-30T19:28:40.720Z,31.11
2017-06-30T19:31:08.322Z,31.06
2017-06-30T19:33:37.474Z,31.18
2017-06-30T19:36:05.582Z,30.88
2017-06-30T19:38:33.866Z,30.86
2017-06-30T19:41:01.411Z,30.75
2017-06-30T19:43:29.010Z,30.66
2017-06-30T19:45:57.473Z,30.76
2017-06-30T19:48:25.054Z,30.59
2017-06-30T19:50:52.660Z,30.48
2017-06-30T19:53:24.775Z,30.35
2017-06-30T19:55:55.404Z,30.09
2017-06-30T19:58:22.999Z,29.78
2017-06-30T20:00:50.564Z,29.93
2017-06-30T20:03:18.328Z,29.99
2017-06-30T20:05:45.876Z,29.76
2017-06-30T20:08:13.441Z,29.49
2017-06-30T20:10:41.089Z,29.74
2017-06-30T20:13:09.060Z,29.84
2017-06-30T20:15:37.520Z,29.83
2017-06-30T20:18:05.073Z,29.82
2017-06-30T20:20:32.623Z,29.78
2017-06-30T20:23:00.245Z,29.38
2017-06-30T20:25:28.387Z,29.48
2017-06-30T20:27:56.206Z,29.54
2017-06-30T20:30:23.838Z,29.56
2017-06-30T20:32:51.594Z,29.23
2017-06-30T20:35:19.125Z,28.86
2017-06-30T20:37:46.726Z,28.53
2017-06-30T20:40:15.468Z,28.54
2017-06-30T20:42:43.039Z,28.44
2017-06-30T20:45:10.638Z,28.19
2017-06-30T20:47:38.550Z,27.98
2017-06-30T20:50:06.100Z,27.89
2017-06-30T20:52:33.735Z,27.83
2017-06-30T20:55:01.343Z,27.73
2017-06-30T20:57:28.893Z,27.55
2017-06-30T20:59:56.968Z,27.46
2017-06-30T21:02:24.881Z,27.52
2017-06-30T21:04:52.501Z,27.47
2017-06-30T21:07:20.047Z,27.40
2017-06-30T21:09:48.392Z,27.51
2017-06-30T21:12:16.531Z,27.60
2017-06-30T21:14:44.457Z,27.60
2017-06-30T21:17:12.140Z,27.59
2017-06-30T21:19:39.702Z,27.63
2017-06-30T21:22:07.269Z,27.57
2017-06-30T21:24:34.836Z,27.43
2017-06-30T21:27:02.409Z,27.52
2017-06-30T21:29:29.940Z,27.49
2017-06-30T21:31:57.535Z,27.57
2017-06-30T21:34:25.101Z,27.46
2017-06-30T21:36:52.677Z,27.43
2017-06-30T21:39:20.341Z,27.42
2017-06-30T21:41:48.124Z,27.39
2017-06-30T21:44:15.700Z,27.28
2017-06-30T21:46:43.544Z,27.33
2017-06-30T21:49:11.062Z,27.45
2017-06-30T21:51:39.424Z,27.37
2017-06-30T21:54:07.057Z,27.24
2017-06-30T21:56:35.384Z,27.11
2017-06-30T21:59:02.944Z,27.30
2017-06-30T22:01:30.521Z,27.24
2017-06-30T22:03:58.034Z,27.15
2017-06-30T22:06:25.581Z,27.21
2017-06-30T22:08:53.131Z,27.25
2017-06-30T22:11:20.659Z,27.29
2017-06-30T22:13:48.421Z,27.23
2017-06-30T22:16:15.997Z,27.24
2017-06-30T22:18:43.554Z,27.35
2017-06-30T22:21:11.102Z,27.39
2017-06-30T22:23:38.685Z,27.43
2017-06-30T22:26:06.456Z,27.33
2017-06-30T22:28:33.975Z,27.35
2017-06-30T22:31:01.577Z,27.49
2017-06-30T22:33:29.111Z,27.52
2017-06-30T22:35:56.670Z,27.41
2017-06-30T22:38:24.241Z,27.35
2017-06-30T22:40:51.753Z,27.23
2017-06-30T22:43:19.283Z,26.98
2017-06-30T22:45:47.236Z,26.71
2017-06-30T22:48:14.797Z,26.62
2017-06-30T22:50:42.559Z,26.54
2017-06-30T22:53:10.881Z,26.47
2017-06-30T22:55:38.490Z,26.55
2017-06-30T22:58:06.054Z,26.61
2017-06-30T23:00:33.617Z,26.66
2017-06-30T23:03:01.130Z,26.69
2017-06-30T23:05:29.257Z,26.56
2017-06-30T23:07:56.857Z,26.53
2017-06-30T23:10:24.384Z,26.74
2017-06-30T23:12:51.904Z,26.77
2017-06-30T23:15:19.507Z,26.72
2017-06-30T23:17:47.040Z,26.79
2017-06-30T23:20:14.566Z,26.77
2017-06-30T23:22:42.166Z,26.74
2017-06-30T23:25:09.798Z,26.72
2017-06-30T23:27:37.396Z,26.59
2017-06-30T23:30:06.548Z,26.73
2017-06-30T23:32:38.626Z,26.78
2017-06-30T23:37:56.924Z,26.82
2017-06-30T23:40:30.994Z,26.62
2017-06-30T23:42:58.663Z,26.49
2017-06-30T23:45:26.296Z,26.36
2017-06-30T23:47:54.182Z,26.43
2017-06-30T23:50:21.808Z,26.53
2017-06-30T23:52:49.416Z,26.59
2017-06-30T23:55:17.396Z,26.61
2017-06-30T23:57:44.986Z,26.59
